• Join FlightAware (Why Join?)
  • Login
  • US Flag GB Flag 
19:57 EDT


 

Airport Tracker/Info


-or-


 

Live Flight TrackerFlight Track Log ✈ UAL5887 ✈ 07-Apr-2013 ✈ CYUL - KORD

Flight Track Log - Related Links

Times and Time Zones

All times are in EDT time to prevent confusion due to time zone crossing. See the UAL5887 flight status page for this flight to view local times or setup timezone preferences in your user account.

Time Position Orientation Groundspeed Altitude Reporting Facility
EDT Latitude Longitude Course Direction KTS MPH feet Rate Location/Type
14:23 45.4500 -74.0667 270° West 260 299 10,200  Level Toronto Center
14:24 45.4815 -74.6556 245° Southwest  Level FlightAware Approximate
14:24 45.4500 -74.1833 270° West 290 334 11,100  Level Toronto Center
14:25 45.4564 -74.7927 261° West  Level FlightAware Approximate
14:25 45.4667 -74.3000 282° West 310 357 12,300  Level Toronto Center
14:26 45.4351 -74.9322 256° West  Level FlightAware Approximate
14:26 45.5000 -74.4167 292° West 320 368 13,700  Level Toronto Center
14:27 45.4167 -75.0716 270° West  Level FlightAware Approximate
14:27 45.4833 -74.5333 259° West 300 345 15,200  Level Toronto Center
14:28 45.4167 -75.2145 270° West  Level FlightAware Approximate
14:28 45.4667 -74.6667 260° West 310 357 16,200  Level Toronto Center
14:29 45.4167 -75.3573 270° West  Level FlightAware Approximate
14:29 45.4500 -74.7833 259° West 310 357 17,100  Level Toronto Center
14:30 45.4333 -74.9000 259° West 320 368 18,500 1,140 Climbing Toronto Center
14:31 45.4167 -75.0167 259° West 330 380 19,400 960 Climbing Toronto Center
14:32 45.4167 -75.1667 270° West 340 391 20,500 960 Climbing Toronto Center
14:33 45.4167 -75.3000 270° West 340 391 21,400 960 Climbing Toronto Center
14:34 45.4000 -75.4500 261° West 340 391 22,500 1,020 Climbing Toronto Center
14:35 45.4167 -75.5667 282° West 340 391 23,500 900 Climbing Toronto Center
14:36 45.4167 -75.7167 270° West 340 391 24,400 900 Climbing Toronto Center
14:37 45.4000 -75.8333 259° West 330 380 25,400 960 Climbing Toronto Center
14:38 45.3833 -75.9833 261° West 330 380 26,400 960 Climbing Toronto Center
14:39 45.4000 -76.1000 282° West 330 380 27,400 960 Climbing Toronto Center
14:40 45.3833 -76.2333 260° West 330 380 28,400 900 Climbing Toronto Center
14:41 45.3500 -76.3500 248° West 320 368 29,300 960 Climbing Toronto Center
14:42 45.3333 -76.4833 260° West 320 368 30,400 960 Climbing Toronto Center
14:43 45.3000 -76.6000 248° West 320 368 31,300 900 Climbing Toronto Center
14:44 45.2833 -76.7000 257° West 320 368 32,300 960 Climbing Toronto Center
14:45 45.2500 -76.8333 250° West 320 368 33,300 900 Climbing Toronto Center
14:46 45.2167 -76.9333 245° Southwest 320 368 34,200 900 Climbing Toronto Center
14:47 45.1833 -77.0833 253° West 320 368 35,200 720 Climbing Toronto Center
14:48 45.1500 -77.2000 248° West 330 380 35,700 360 Climbing Toronto Center
14:49 45.1167 -77.3167 248° West 330 380 36,000 120 Climbing Toronto Center
14:50 45.1000 -77.4667 261° West 350 403 36,000  Level Toronto Center
14:51 45.0667 -77.6000 251° West 370 426 36,000  Level Toronto Center
14:52 45.0333 -77.7167 248° West 380 437 36,000  Level Toronto Center
14:53 45.0000 -77.8833 254° West 390 449 36,000  Level Toronto Center
14:54 44.9500 -78.0333 245° Southwest 400 460 36,000  Level Toronto Center
14:55 44.9167 -78.1667 251° West 400 460 36,000  Level Toronto Center
14:57 44.8500 -78.4333 251° West 370 426 36,000  Level Toronto Center
14:58 44.8167 -78.5667 251° West 360 414 36,000  Level Toronto Center
14:59 44.7833 -78.7167 253° West 360 414 36,000  Level Toronto Center
15:00 44.7500 -78.8500 251° West 370 426 36,000  Level Toronto Center
15:01 44.7000 -78.9833 242° Southwest 370 426 36,000  Level Toronto Center
15:02 44.6500 -79.1000 239° Southwest 380 437 36,000  Level Toronto Center
15:03 44.6000 -79.2333 242° Southwest 390 449 36,000  Level Toronto Center
15:04 44.5500 -79.3833 245° Southwest 400 460 36,000  Level Toronto Center
15:05 44.5000 -79.5167 242° Southwest 400 460 36,000  Level Toronto Center
15:06 44.4500 -79.6500 242° Southwest 390 449 36,000  Level Toronto Center
15:07 44.4000 -79.8000 245° Southwest 390 449 36,000  Level Toronto Center
15:08 44.3500 -79.9167 239° Southwest 390 449 36,000  Level Toronto Center
15:09 44.3000 -80.0500 242° Southwest 380 437 36,000  Level Toronto Center
15:10 44.2500 -80.1833 242° Southwest 380 437 36,000  Level Toronto Center
15:11 44.2000 -80.3333 245° Southwest 380 437 36,000  Level Toronto Center
15:12 44.1500 -80.4500 239° Southwest 380 437 36,000  Level Toronto Center
15:13 44.1000 -80.5667 239° Southwest 380 437 36,000  Level Toronto Center
15:14 44.0500 -80.7000 242° Southwest 380 437 36,000  Level Toronto Center
15:15 43.9833 -80.8333 235° Southwest 380 437 36,000  Level Toronto Center
15:16 43.9333 -80.9833 245° Southwest 380 437 36,000  Level Toronto Center
15:17 43.8833 -81.0833 235° Southwest 380 437 36,000  Level Toronto Center
15:18 43.8500 -81.2000 248° West 380 437 36,000  Level Toronto Center
15:19 43.8000 -81.3500 245° Southwest 370 426 36,000  Level Toronto Center
15:20 43.7500 -81.4500 235° Southwest 370 426 36,000  Level Toronto Center
15:21 43.7000 -81.6000 245° Southwest 370 426 36,000  Level Toronto Center
15:22 43.6500 -81.7000 235° Southwest 370 426 36,000  Level Toronto Center
15:23 43.6000 -81.8500 245° Southwest 370 426 36,000  Level Toronto Center
15:24 43.5333 -81.9833 235° Southwest 380 437 36,000  Level Toronto Center
15:25 43.4833 -82.1167 243° Southwest 390 449 36,000  Level Toronto Center
15:26 43.4333 -82.2333 239° Southwest 390 449 36,000 -540 Level Toronto Center
15:27 43.3833 -82.3667 243° Southwest 380 437 35,000 -1,140 Descending Toronto Center
15:28 43.3500 -82.4833 249° West 370 426 33,800 -1,200 Descending Toronto Center
15:29 43.3000 -82.5833 236° Southwest 360 414 32,600 -900 Descending Toronto Center
15:30 43.2333 -82.7167 236° Southwest 370 426 32,000 -300 Descending Toronto Center
15:31 43.2000 -82.8500 251° West 370 426 32,000  Level Toronto Center
15:32 43.1667 -83.0000 253° West 380 437 32,000  Level Toronto Center
15:33 43.1333 -83.1333 251° West 380 437 32,000  Level Toronto Center
15:34 43.0833 -83.2667 243° Southwest 390 449 32,000  Level Toronto Center
15:35 43.0500 -83.4000 251° West 390 449 32,000  Level Toronto Center
15:36 43.0167 -83.5333 251° West 390 449 32,000  Level Toronto Center
15:37 42.9833 -83.6667 251° West 390 449 32,000  Level Toronto Center
15:38 42.9500 -83.8000 251° West 390 449 32,000  Level Toronto Center
15:39 42.9333 -83.9667 262° West 390 449 32,000  Level Toronto Center
15:40 42.9333 -84.1000 270° West 390 449 32,000  Level Toronto Center
15:41 42.9000 -84.2500 253° West 390 449 32,000  Level Toronto Center
15:42 42.9000 -84.3833 270° West 390 449 32,000  Level Toronto Center
15:43 42.8894 -84.5311 264° West 390 449 32,000  Level Chicago Center
15:44 42.8742 -84.6781 262° West 393 452 32,000  Level Chicago Center
15:45 42.8594 -84.8242 262° West 390 449 32,000  Level Chicago Center
15:46 42.8406 -85.0011 262° West 392 451 32,000  Level Chicago Center
15:47 42.8256 -85.1492 262° West 394 453 32,000  Level Chicago Center
15:49 42.8086 -85.2969 261° West 395 455 32,000 -120 Level Chicago Center
15:50 42.7922 -85.4464 262° West 397 457 31,800 -1,080 Descending Chicago Center
15:51 42.7700 -85.5911 258° West 392 451 29,800 -2,280 Descending Chicago Center
15:52 42.7431 -85.7406 256° West 399 459 27,200 -2,520 Descending Chicago Center
15:53 42.7161 -85.8914 256° West 407 468 24,600 -2,760 Descending Chicago Center
15:54 42.6853 -86.0600 256° West 384 442 21,500 -2,220 Descending Chicago Center
15:55 42.6603 -86.1942 256° West 370 426 20,100 -780 Descending Chicago Center
15:56 42.6356 -86.3242 256° West 357 411 20,000 -480 Descending Chicago Center
15:57 42.6108 -86.4561 256° West 359 413 19,200 -1,260 Descending Chicago Center
15:58 42.5867 -86.5844 256° West 353 406 17,500 -1,920 Descending Chicago Center
15:59 42.5639 -86.7100 256° West 345 397 15,300 -2,160 Descending Chicago Center
16:00 42.5331 -86.8286 251° West 337 388 13,100 -2,280 Descending Chicago Center
16:01 42.4947 -86.9664 249° West 328 377 10,600 -1,680 Descending Chicago Center
16:02 42.4678 -87.0678 250° West 296 341 9,700 -780 Descending Chicago Center
16:03 42.4419 -87.1572 249° West 260 299 9,000 -360 Descending Chicago Center
16:04 42.4183 -87.2450 250° West 251 289 9,000  Level Chicago Center
16:05 42.3942 -87.3364 250° West 255 293 9,000  Level Chicago Center
16:06 42.3639 -87.4422 249° West 257 296 9,000 -300 Level Chicago Center
16:07 42.3394 -87.5300 249° West 252 290 8,500 -780 Descending Chicago Center
16:08 42.2842 -87.5933 220° Southwest 259 298 7,400 -780 Descending Chicago Center
16:09 42.2278 -87.6519 218° Southwest 257 296 7,000 -240 Descending Chicago Center
16:10 42.1728 -87.7111 219° Southwest 254 292 7,000  Level Chicago Center
16:11 42.1075 -87.7836 219° Southwest 255 293 7,000  Level Chicago Center
16:12 42.0794 -87.8672 246° West 246 283 7,000  Level Chicago Center
16:13 42.0497 -87.9486 244° Southwest 244 281 7,000 -360 Level Chicago Center
16:14 42.0500 -88.0333 270° West 200 230 6,300 -960 Descending Chicago TRACON
16:15 42.0333 -88.1167 255° West 196 226 5,000 -1,080 Descending Chicago TRACON
16:16 42.0333 -88.2000 270° West 206 237 4,100 -540 Descending Chicago TRACON
16:18 42.0000 -88.2167 200° South 236 272 4,000 -60 Descending Chicago TRACON
16:19 41.9678 -88.1483 122° Southeast 233 268 4,000 -540 Level Chicago Center
16:19 41.9667 -88.0667 91° East 195 224 3,000 -1,140 Descending Chicago TRACON
16:21 41.9667 -88.0000 90° East 175 201 1,800 -1,020 Descending Chicago TRACON
16:22 41.9667 -87.9333 90° East 147 169 900 -900 Descending Chicago TRACON